Time;durP1;ratioP1;P1;durP2;ratioP2;P2;SDS_P1;SDS_P2;PMS_P1;PMS_P2;Temp;Humidity;BMP_temperature;BMP_pressure;BME280_temperature;BME280_humidity;BME280_pressure;Samples;Min_cycle;Max_cycle;Signal;HPM_P1;HPM_P2
2022/09/05 00:04:01;;;;;;;5.45;3.67;;;;;;;19.68;53.49;100810.00;10194791;29;19962;-79
2022/09/05 00:09:51;;;;;;;5.38;4.57;;;;;;;19.61;53.23;100818.03;10183245;29;20117;-79
2022/09/05 00:15:15;;;;;;;5.47;4.45;;;;;;;19.63;52.97;100805.06;10161360;29;20060;-78
2022/09/05 00:20:29;;;;;;;5.07;4.22;;;;;;;19.55;52.98;100810.47;10174925;29;20138;-79
2022/09/05 00:26:08;;;;;;;4.80;4.20;;;;;;;19.59;52.88;100816.50;10170287;29;20071;-78
2022/09/05 00:31:29;;;;;;;4.40;4.00;;;;;;;19.58;52.81;100817.50;10139023;29;20052;-78
2022/09/05 00:36:54;;;;;;;6.25;4.05;;;;;;;19.64;52.70;100811.38;10180637;29;20059;-79
2022/09/05 00:42:04;;;;;;;5.13;3.55;;;;;;;19.61;52.49;100811.69;10167842;29;20051;-78
2022/09/05 00:47:13;;;;;;;4.43;3.85;;;;;;;19.63;52.57;100807.78;10174933;29;20067;-78
2022/09/05 00:52:24;;;;;;;4.03;3.67;;;;;;;19.56;52.60;100808.66;10203712;29;20044;-78
2022/09/05 00:57:48;;;;;;;3.85;3.53;;;;;;;19.50;52.79;100806.56;10193250;29;20048;-79
2022/09/05 01:03:08;;;;;;;4.22;3.42;;;;;;;19.50;52.74;100809.31;10175001;29;20051;-79
2022/09/05 01:08:30;;;;;;;3.80;3.50;;;;;;;19.51;52.72;100811.88;10133568;29;20055;-78
2022/09/05 01:13:45;;;;;;;4.13;3.40;;;;;;;19.47;53.02;100807.78;10149399;29;20158;-78
2022/09/05 01:19:00;;;;;;;3.85;3.55;;;;;;;19.39;53.39;100807.78;10177957;29;20059;-78
2022/09/05 01:24:29;;;;;;;4.90;3.40;;;;;;;19.32;53.61;100804.06;10198912;29;20110;-78
2022/09/05 01:29:43;;;;;;;5.38;3.35;;;;;;;19.28;53.60;100795.41;10149729;29;20087;-78
2022/09/05 01:35:00;;;;;;;3.67;3.38;;;;;;;19.12;54.04;100795.41;10145624;29;20052;-78
2022/09/05 01:40:19;;;;;;;5.15;3.97;;;;;;;19.06;54.12;100799.66;10132993;29;20084;-78
2022/09/05 01:45:31;;;;;;;5.00;3.28;;;;;;;19.05;54.27;100800.66;10168734;29;20048;-77
2022/09/05 01:50:48;;;;;;;4.10;3.75;;;;;;;19.04;54.33;100803.56;10177865;29;20055;-78
2022/09/05 01:56:22;;;;;;;4.37;3.23;;;;;;;18.95;54.37;100798.13;10166333;29;20047;-78
2022/09/05 02:01:36;;;;;;;4.10;3.80;;;;;;;19.00;54.26;100803.03;10180911;29;20299;-78
2022/09/05 02:06:46;;;;;;;3.80;3.42;;;;;;;18.95;54.40;100798.13;10184975;29;20703;-78
2022/09/05 02:11:56;;;;;;;4.35;3.70;;;;;;;18.91;54.52;100807.63;10177268;29;20070;-78
2022/09/05 02:17:15;;;;;;;4.80;3.13;;;;;;;18.88;54.63;100809.84;10157131;29;20134;-79
2022/09/05 02:22:42;;;;;;;4.32;3.30;;;;;;;18.88;54.68;100807.13;10163182;29;20048;-79
2022/09/05 02:27:50;;;;;;;3.53;3.22;;;;;;;18.82;54.84;100805.09;10145745;29;20123;-79
2022/09/05 02:33:20;;;;;;;4.97;3.60;;;;;;;18.70;55.08;100810.78;10151992;29;20058;-78
2022/09/05 02:38:31;;;;;;;3.83;3.47;;;;;;;18.62;55.29;100804.47;10147301;29;20054;-78
2022/09/05 02:44:00;;;;;;;5.53;4.07;;;;;;;18.58;55.67;100806.69;10157406;29;20099;-78
2022/09/05 02:49:45;;;;;;;5.63;4.35;;;;;;;18.62;55.26;100802.59;10161205;29;20063;-78
2022/09/05 02:55:23;;;;;;;4.38;3.47;;;;;;;18.63;55.50;100806.19;10157313;29;20639;-79
2022/09/05 03:00:54;;;;;;;7.13;3.85;;;;;;;18.63;55.43;100801.59;10172367;29;20063;-79
2022/09/05 03:06:05;;;;;;;5.57;3.70;;;;;;;18.63;55.48;100798.03;10161471;29;20056;-79
2022/09/05 03:11:49;;;;;;;3.65;3.35;;;;;;;18.64;55.67;100800.59;10183663;29;20379;-78
2022/09/05 03:17:33;;;;;;;3.63;3.33;;;;;;;18.61;55.66;100800.06;10185805;29;20066;-79
2022/09/05 03:23:07;;;;;;;3.88;3.55;;;;;;;18.80;55.10;100807.97;10139268;29;20071;-79
2022/09/05 03:28:49;;;;;;;4.00;3.70;;;;;;;18.83;55.04;100807.63;10153877;29;20062;-79
2022/09/05 03:34:38;;;;;;;3.85;3.55;;;;;;;18.89;55.08;100811.53;10158032;29;20047;-77
2022/09/05 03:40:15;;;;;;;7.03;3.30;;;;;;;18.87;55.06;100817.16;10170071;29;20074;-78
2022/09/05 03:45:30;;;;;;;6.25;3.58;;;;;;;18.82;55.04;100814.09;10168845;29;20138;-78
2022/09/05 03:50:52;;;;;;;3.55;3.25;;;;;;;18.78;55.14;100818.16;10168216;29;20062;-78
2022/09/05 03:56:37;;;;;;;4.13;3.25;;;;;;;18.79;54.90;100825.31;10161573;29;20087;-78
2022/09/05 04:02:03;;;;;;;4.93;3.47;;;;;;;18.78;55.12;100821.72;10181576;29;20115;-78
2022/09/05 04:07:31;;;;;;;3.95;3.60;;;;;;;18.75;55.10;100811.13;10168374;29;21305;-78
2022/09/05 04:13:02;;;;;;;4.32;3.92;;;;;;;18.65;55.36;100815.91;10151703;29;20044;-78
2022/09/05 04:18:21;;;;;;;4.38;3.97;;;;;;;18.57;55.55;100824.03;10176436;29;20075;-78
2022/09/05 04:23:46;;;;;;;3.92;3.63;;;;;;;18.47;56.02;100828.78;10179763;29;20071;-79
2022/09/05 04:29:01;;;;;;;4.13;3.75;;;;;;;18.42;56.03;100840.13;10174170;29;20059;-78
2022/09/05 04:34:19;;;;;;;4.40;4.00;;;;;;;18.33;56.41;100833.81;10135513;29;20057;-78
2022/09/05 04:39:27;;;;;;;4.72;4.32;;;;;;;18.29;56.51;100843.34;10148648;29;20140;-78
2022/09/05 04:44:37;;;;;;;6.78;3.92;;;;;;;18.30;56.62;100849.63;10162759;29;20060;-78
2022/09/05 04:49:43;;;;;;;4.15;3.85;;;;;;;18.25;56.75;100846.53;10144849;29;20124;-78
2022/09/05 04:54:52;;;;;;;5.05;3.90;;;;;;;18.23;56.71;100854.84;10156090;29;20059;-79
2022/09/05 05:00:04;;;;;;;4.28;3.97;;;;;;;18.27;56.89;100861.69;10156515;29;20044;-78
2022/09/05 05:05:43;;;;;;;5.13;3.92;;;;;;;18.31;56.83;100854.88;10151918;29;20071;-78
2022/09/05 05:11:11;;;;;;;5.25;4.18;;;;;;;18.30;56.49;100866.78;10140007;29;20139;-78
2022/09/05 05:16:42;;;;;;;4.90;4.45;;;;;;;18.36;56.75;100868.84;10161258;29;20368;-78
2022/09/05 05:22:06;;;;;;;4.70;3.05;;;;;;;18.49;56.37;100867.53;10172911;29;20162;-79
2022/09/05 05:27:18;;;;;;;4.78;3.30;;;;;;;18.64;56.19;100879.47;10157810;29;20083;-78
2022/09/05 05:32:26;;;;;;;4.20;3.60;;;;;;;18.82;55.82;100876.69;10140171;29;20060;-79
2022/09/05 05:37:53;;;;;;;6.72;4.10;;;;;;;18.90;55.40;100873.97;10160563;29;20335;-78
2022/09/05 05:43:14;;;;;;;5.80;3.67;;;;;;;19.10;55.09;100879.13;10168930;29;21244;-78
2022/09/05 05:54:02;;;;;;;6.05;3.83;;;;;;;19.49;53.94;100879.28;10841063;23;20044;-80
2022/09/05 06:06:13;;;;;;;6.72;4.15;;;;;;;19.41;54.12;100888.31;10175635;23;20055;-78
2022/09/05 06:12:07;;;;;;;5.47;3.97;;;;;;;19.59;53.94;100888.19;10164197;29;20156;-78
2022/09/05 06:18:00;;;;;;;4.05;3.65;;;;;;;19.60;53.84;100895.31;10028269;29;20053;-79
2022/09/05 06:23:38;;;;;;;7.57;3.50;;;;;;;19.65;53.81;100897.53;10207621;28;20046;-78
2022/09/05 06:28:56;;;;;;;4.07;3.78;;;;;;;19.74;53.37;100896.50;10247043;28;20047;-78
2022/09/05 06:34:15;;;;;;;5.80;3.92;;;;;;;19.86;53.36;100894.28;10230716;28;20133;-79
2022/09/05 06:39:59;;;;;;;5.22;3.78;;;;;;;19.99;53.24;100896.47;10218845;28;20432;-78
2022/09/05 06:45:17;;;;;;;4.05;3.67;;;;;;;20.10;53.24;100890.63;10212459;29;20061;-77
2022/09/05 06:51:01;;;;;;;9.35;3.97;;;;;;;20.21;52.72;100901.16;10214932;28;20183;-78
2022/09/05 06:56:29;;;;;;;5.50;3.95;;;;;;;20.27;52.38;100894.19;10217769;28;20624;-77
2022/09/05 07:01:41;;;;;;;4.97;3.72;;;;;;;20.70;51.41;100903.72;10202381;29;20114;-78
2022/09/05 07:07:09;;;;;;;5.80;3.85;;;;;;;21.02;50.84;100908.16;10200415;29;20059;-78
2022/09/05 07:12:17;;;;;;;4.18;3.78;;;;;;;21.53;50.09;100904.94;10200614;29;20118;-77
2022/09/05 07:17:32;;;;;;;7.88;4.88;;;;;;;21.93;48.53;100900.13;10212499;28;20118;-78
2022/09/05 07:23:04;;;;;;;4.55;3.42;;;;;;;22.11;48.58;100900.63;10206223;29;20110;-79
2022/09/05 07:28:27;;;;;;;4.85;3.53;;;;;;;22.29;48.19;100916.66;10201463;29;20070;-77
2022/09/05 07:33:38;;;;;;;5.68;3.85;;;;;;;22.57;47.17;100910.53;10184149;28;20629;-77
2022/09/05 07:38:49;;;;;;;3.90;3.50;;;;;;;22.76;47.23;100915.44;10184227;29;20040;-78
2022/09/05 07:44:20;;;;;;;4.78;3.70;;;;;;;22.63;47.14;100920.75;10184647;29;20063;-78
2022/09/05 07:49:29;;;;;;;3.47;3.17;;;;;;;22.95;47.48;100916.69;10218460;29;20188;-76
2022/09/05 07:54:36;;;;;;;3.90;3.40;;;;;;;23.64;45.87;100913.44;10204296;28;20074;-78
2022/09/05 08:00:07;;;;;;;6.43;3.42;;;;;;;23.86;45.37;100911.53;10193233;28;20555;-78
2022/09/05 08:05:39;;;;;;;3.60;3.30;;;;;;;23.94;45.25;100906.91;10202186;28;20500;-78
2022/09/05 08:10:49;;;;;;;6.25;3.08;;;;;;;24.29;44.61;100914.13;10201531;28;20058;-78
2022/09/05 08:16:15;;;;;;;3.30;3.00;;;;;;;25.12;43.41;100916.00;10201339;28;20054;-77
2022/09/05 08:21:24;;;;;;;3.03;2.72;;;;;;;25.37;42.62;100914.38;10220424;28;20062;-78
2022/09/05 08:26:37;;;;;;;8.82;3.17;;;;;;;25.76;41.45;100893.47;10218295;28;20123;-78
2022/09/05 08:31:45;;;;;;;3.13;2.90;;;;;;;26.69;40.52;100904.28;10215809;28;20122;-78
2022/09/05 08:36:51;;;;;;;5.60;2.90;;;;;;;27.16;39.61;100904.88;10217223;28;20047;-78
2022/09/05 08:42:23;;;;;;;4.80;3.08;;;;;;;27.06;39.20;100900.91;10188934;29;20060;-78
2022/09/05 08:47:32;;;;;;;5.53;2.85;;;;;;;26.70;40.21;100886.66;10201171;29;20523;-77
2022/09/05 08:53:05;;;;;;;6.30;2.90;;;;;;;26.69;40.17;100892.41;10172800;29;20063;-80
2022/09/05 08:58:55;;;;;;;3.63;2.40;;;;;;;27.35;39.19;100888.44;10224159;28;20068;-79
2022/09/05 09:04:24;;;;;;;5.10;2.90;;;;;;;27.86;38.17;100872.72;10224943;28;20142;-77
2022/09/05 09:09:58;;;;;;;3.85;2.53;;;;;;;27.22;38.74;100880.25;10219478;29;20125;-77
2022/09/05 09:15:05;;;;;;;3.40;3.03;;;;;;;27.51;38.64;100870.50;10188318;29;20059;-80
2022/09/05 09:20:21;;;;;;;7.80;2.72;;;;;;;28.18;38.26;100863.28;10173539;29;20414;-80
2022/09/05 09:25:29;;;;;;;6.78;2.40;;;;;;;28.66;37.50;100865.28;10217162;28;20071;-80
2022/09/05 09:30:40;;;;;;;7.28;2.25;;;;;;;29.05;35.99;100856.66;10220407;28;20047;-79
2022/09/05 09:35:51;;;;;;;2.92;2.05;;;;;;;29.49;35.20;100860.88;10211570;28;20134;-81
2022/09/05 09:41:22;;;;;;;2.38;2.10;;;;;;;29.48;35.86;100847.25;10201473;29;20078;-80
2022/09/05 09:46:36;;;;;;;5.75;2.40;;;;;;;29.95;34.76;100842.59;10200396;28;20052;-80
2022/09/05 09:51:54;;;;;;;3.00;2.70;;;;;;;30.33;33.71;100848.69;10196664;29;20060;-81
2022/09/05 09:57:20;;;;;;;6.55;2.20;;;;;;;30.15;33.34;100838.63;10202781;28;21258;-81
2022/09/05 10:02:47;;;;;;;4.13;2.15;;;;;;;30.84;33.82;100827.56;10233373;29;20047;-79
2022/09/05 10:08:42;;;;;;;4.10;1.80;;;;;;;30.60;33.74;100829.56;10205905;28;20142;-81
2022/09/05 10:14:37;;;;;;;2.47;2.28;;;;;;;30.95;32.20;100823.06;10213527;29;20135;-81
2022/09/05 10:20:22;;;;;;;3.38;2.22;;;;;;;31.40;32.54;100816.63;10221365;29;20179;-80
2022/09/05 10:25:57;;;;;;;3.72;2.20;;;;;;;31.49;31.72;100820.66;10225443;28;21238;-81
2022/09/05 10:31:14;;;;;;;5.78;2.10;;;;;;;30.86;32.30;100815.13;10209068;28;20106;-80
2022/09/05 10:36:40;;;;;;;3.08;2.03;;;;;;;31.35;31.80;100818.25;10185858;29;20055;-79
2022/09/05 10:41:48;;;;;;;6.93;2.20;;;;;;;32.00;31.00;100811.16;10197257;29;20063;-80
2022/09/05 10:47:03;;;;;;;4.75;2.00;;;;;;;32.39;30.59;100810.28;10201773;29;20047;-80
2022/09/05 10:52:11;;;;;;;3.05;1.80;;;;;;;31.75;30.49;100816.38;10223170;29;21181;-81
2022/09/05 10:57:33;;;;;;;1.70;1.60;;;;;;;32.93;29.95;100796.41;10201986;29;20061;-81
2022/09/05 11:02:42;;;;;;;5.45;1.70;;;;;;;34.51;27.80;100779.03;10214569;29;20051;-81
2022/09/05 11:08:00;;;;;;;2.22;1.77;;;;;;;34.53;27.54;100772.06;10215324;28;20051;-80
2022/09/05 11:13:15;;;;;;;2.30;1.70;;;;;;;34.38;27.89;100769.25;10210969;29;20127;-79
2022/09/05 11:18:33;;;;;;;3.40;1.73;;;;;;;34.17;28.68;100773.91;10228108;28;20055;-81
2022/09/05 11:23:59;;;;;;;6.65;1.83;;;;;;;33.48;29.06;100772.94;10204148;28;20047;-80
2022/09/05 11:29:07;;;;;;;1.92;1.80;;;;;;;32.68;30.81;100766.41;10203421;29;20118;-80
2022/09/05 11:34:34;;;;;;;1.75;1.65;;;;;;;32.71;30.01;100778.97;10219549;28;20098;-80
2022/09/05 11:40:30;;;;;;;3.58;1.90;;;;;;;34.57;28.19;100775.19;10213132;29;21292;-81
2022/09/05 11:46:14;;;;;;;2.78;1.50;;;;;;;35.99;26.98;100762.25;10209999;28;20087;-80
2022/09/05 11:51:57;;;;;;;4.78;1.65;;;;;;;33.67;28.34;100766.97;10208679;29;20055;-80
2022/09/05 11:57:18;;;;;;;1.63;1.50;;;;;;;34.76;27.98;100751.22;10209655;29;20062;-81
2022/09/05 12:02:54;;;;;;;5.68;1.67;;;;;;;35.55;26.89;100743.38;10209521;29;20056;-81
2022/09/05 12:08:06;;;;;;;1.70;1.60;;;;;;;35.80;26.47;100731.28;10187117;29;20164;-82
2022/09/05 12:13:32;;;;;;;3.08;1.40;;;;;;;35.07;26.67;100734.50;10205378;29;20106;-81
2022/09/05 12:18:43;;;;;;;4.00;1.50;;;;;;;34.34;27.48;100729.06;10189334;29;20593;-82
2022/09/05 12:23:57;;;;;;;2.45;1.10;;;;;;;34.51;26.09;100717.69;10184611;29;21185;-81
2022/09/05 12:29:28;;;;;;;1.92;1.60;;;;;;;34.97;25.44;100713.00;10221179;29;20067;-82
2022/09/05 12:34:49;;;;;;;1.65;1.45;;;;;;;35.27;25.44;100709.34;10185874;29;20054;-81
2022/09/05 12:40:18;;;;;;;2.58;1.30;;;;;;;37.79;23.25;100697.25;10199828;29;20063;-82
2022/09/05 12:45:46;;;;;;;1.55;1.45;;;;;;;38.33;21.69;100690.34;10195158;28;20059;-81
2022/09/05 12:50:57;;;;;;;2.38;1.20;;;;;;;38.71;21.04;100684.72;10203234;29;20603;-81
2022/09/05 12:56:04;;;;;;;2.95;1.45;;;;;;;38.53;21.11;100684.44;10216169;28;20043;-82
2022/09/05 13:01:31;;;;;;;0.73;0.70;;;;;;;39.21;20.40;100679.34;10183442;29;20057;-81
2022/09/05 13:06:59;;;;;;;2.55;1.10;;;;;;;38.77;20.89;100670.28;10205554;29;20048;-82
2022/09/05 13:12:11;;;;;;;1.33;1.23;;;;;;;38.47;20.53;100679.19;10181844;29;21052;-81
2022/09/05 13:17:39;;;;;;;1.73;1.23;;;;;;;38.80;19.71;100672.47;10207145;28;20106;-82
2022/09/05 13:22:49;;;;;;;3.10;0.90;;;;;;;38.30;20.33;100672.16;10197146;28;20039;-80
2022/09/05 13:27:58;;;;;;;1.58;1.00;;;;;;;36.72;21.12;100671.19;10204626;29;20394;-80
2022/09/05 13:33:03;;;;;;;3.60;1.40;;;;;;;36.10;21.86;100670.78;10244361;28;20059;-78
2022/09/05 13:38:35;;;;;;;3.80;1.35;;;;;;;34.50;22.21;100661.06;10211678;28;20059;-81
2022/09/05 13:43:55;;;;;;;1.02;0.80;;;;;;;32.68;23.27;100680.22;10195510;29;20051;-82
2022/09/05 13:49:22;;;;;;;1.23;0.80;;;;;;;32.88;23.68;100669.28;10236321;29;20048;-80
2022/09/05 13:54:36;;;;;;;5.47;0.80;;;;;;;33.64;22.69;100658.91;10220926;28;20035;-80
2022/09/05 13:59:43;;;;;;;1.33;0.80;;;;;;;31.85;24.36;100655.44;10247857;28;20064;-80
2022/09/05 14:05:27;;;;;;;1.05;1.00;;;;;;;31.52;25.03;100656.38;10202112;29;20492;-81
2022/09/05 14:11:06;;;;;;;1.75;1.30;;;;;;;33.92;23.35;100654.81;10207328;28;20107;-80
2022/09/05 14:16:18;;;;;;;2.95;1.10;;;;;;;32.93;23.86;100653.72;10172024;28;20058;-81
2022/09/05 14:21:23;;;;;;;1.85;1.13;;;;;;;32.00;25.10;100652.81;10219430;28;20654;-80
2022/09/05 14:26:30;;;;;;;1.77;1.42;;;;;;;31.64;25.13;100650.69;10200033;29;20051;-79
2022/09/05 14:31:55;;;;;;;1.67;1.15;;;;;;;31.44;25.91;100632.69;10205339;28;20485;-80
2022/09/05 14:37:25;;;;;;;3.03;1.20;;;;;;;30.94;26.45;100643.84;10197497;29;20065;-80
2022/09/05 14:43:15;;;;;;;1.05;1.02;;;;;;;31.09;26.47;100631.06;10205296;28;20824;-80
2022/09/05 14:48:51;;;;;;;1.48;1.38;;;;;;;31.13;25.82;100625.88;10194933;28;20051;-81
2022/09/05 14:53:59;;;;;;;1.80;1.20;;;;;;;32.07;25.53;100618.44;10197211;28;20075;-80
2022/09/05 14:59:18;;;;;;;1.55;1.35;;;;;;;33.14;23.91;100616.59;10223557;28;20055;-80
2022/09/05 15:04:45;;;;;;;2.50;1.30;;;;;;;32.93;24.92;100611.97;10221212;28;20054;-80
2022/09/05 15:10:06;;;;;;;2.38;1.40;;;;;;;32.07;25.40;100610.13;10214561;29;20052;-80
2022/09/05 15:15:34;;;;;;;1.40;1.20;;;;;;;31.35;25.99;100610.09;10199738;28;21102;-79
2022/09/05 15:20:40;;;;;;;4.68;1.58;;;;;;;30.46;27.00;100607.31;10212960;28;20050;-80
2022/09/05 15:25:46;;;;;;;2.45;1.25;;;;;;;30.03;27.84;100611.50;10213321;28;20421;-81
2022/09/05 15:31:03;;;;;;;4.05;1.17;;;;;;;29.92;27.91;100610.50;10213181;29;20043;-79
2022/09/05 15:36:12;;;;;;;1.50;1.20;;;;;;;29.84;28.12;100607.25;10204477;28;20051;-80
2022/09/05 15:41:19;;;;;;;2.85;0.98;;;;;;;29.90;28.37;100598.00;10182750;29;20051;-80
2022/09/05 15:46:27;;;;;;;2.13;1.17;;;;;;;29.96;28.70;100586.75;10182699;29;20582;-79
2022/09/05 15:51:46;;;;;;;4.28;1.10;;;;;;;29.87;28.82;100581.84;10179873;29;20044;-80
2022/09/05 15:56:53;;;;;;;5.15;1.80;;;;;;;29.76;29.49;100587.22;10185405;28;20047;-79
2022/09/05 16:01:56;;;;;;;3.70;1.33;;;;;;;29.66;28.73;100581.47;10183274;29;20141;-79
2022/09/05 16:07:04;;;;;;;1.60;1.27;;;;;;;29.82;29.08;100575.16;10185385;29;20047;-79
2022/09/05 16:12:32;;;;;;;1.25;1.13;;;;;;;31.43;27.42;100574.66;10180527;29;20077;-79
2022/09/05 16:17:39;;;;;;;2.22;1.20;;;;;;;32.41;26.72;100575.44;10205163;29;20044;-79
2022/09/05 16:23:11;;;;;;;2.22;1.40;;;;;;;32.30;26.42;100575.63;10182693;29;20067;-79
2022/09/05 16:28:38;;;;;;;2.83;1.30;;;;;;;32.25;26.26;100567.22;10187186;29;21362;-79
2022/09/05 16:33:42;;;;;;;3.63;1.30;;;;;;;32.36;26.38;100569.00;10213651;28;20110;-79
2022/09/05 16:38:51;;;;;;;2.05;1.25;;;;;;;32.24;27.21;100560.84;10202511;29;20047;-79
2022/09/05 16:43:58;;;;;;;2.08;1.27;;;;;;;32.02;27.10;100560.91;10190835;28;20050;-79
2022/09/05 16:49:07;;;;;;;3.65;1.90;;;;;;;31.42;29.99;100553.56;10204207;29;20056;-79
2022/09/05 16:54:24;;;;;;;4.20;2.53;;;;;;;30.94;30.84;100547.66;10223111;28;21323;-80
2022/09/05 16:59:30;;;;;;;3.58;2.65;;;;;;;30.25;32.09;100554.34;10201956;29;20484;-78
2022/09/05 17:04:45;;;;;;;7.45;2.85;;;;;;;29.24;33.30;100542.13;10233398;28;20346;-78
2022/09/05 17:10:10;;;;;;;7.07;2.53;;;;;;;28.44;34.62;100544.44;10211071;29;20061;-79
2022/09/05 17:15:16;;;;;;;5.07;2.78;;;;;;;28.08;35.35;100547.38;10207476;28;20050;-78
2022/09/05 17:20:22;;;;;;;3.50;2.90;;;;;;;27.82;35.77;100550.28;10210035;29;20047;-78
2022/09/05 17:25:31;;;;;;;7.60;2.90;;;;;;;27.57;36.23;100550.41;10192890;28;20082;-79
2022/09/05 17:31:04;;;;;;;3.40;3.10;;;;;;;27.37;36.84;100549.78;10205442;29;20074;-80
2022/09/05 17:36:39;;;;;;;9.07;3.05;;;;;;;27.35;36.81;100550.03;10190668;29;20079;-79
2022/09/05 17:42:11;;;;;;;7.90;3.20;;;;;;;26.96;37.47;100545.88;10228482;29;20075;-79
2022/09/05 17:47:21;;;;;;;4.57;3.22;;;;;;;26.80;38.12;100550.03;10179457;29;20103;-78
2022/09/05 17:53:04;;;;;;;8.35;3.40;;;;;;;26.52;38.52;100547.72;10195442;29;20051;-79
2022/09/05 17:58:30;;;;;;;5.47;3.33;;;;;;;26.54;38.62;100544.75;10203337;29;20261;-79
2022/09/05 18:03:56;;;;;;;4.15;3.50;;;;;;;26.46;38.63;100554.16;10163974;28;20508;-77
2022/09/05 18:09:58;;;;;;;3.53;3.22;;;;;;;26.44;38.83;100557.16;10198969;28;20050;-76
2022/09/05 18:15:21;;;;;;;6.78;3.45;;;;;;;26.27;39.06;100547.75;10195754;28;20066;-77
2022/09/05 18:20:32;;;;;;;7.72;3.97;;;;;;;26.10;39.38;100554.84;10173915;29;21249;-77
2022/09/05 18:25:47;;;;;;;5.28;3.55;;;;;;;25.93;39.38;100547.13;10206288;28;20772;-77
2022/09/05 18:30:51;;;;;;;6.60;3.45;;;;;;;25.82;39.68;100559.69;10180786;29;20059;-78
2022/09/05 18:36:34;;;;;;;4.00;3.60;;;;;;;25.71;39.70;100565.88;10180340;29;20051;-78
2022/09/05 18:41:38;;;;;;;5.07;3.60;;;;;;;25.63;39.89;100566.97;10141376;29;20062;-78
2022/09/05 18:46:48;;;;;;;8.50;3.90;;;;;;;25.43;40.13;100577.22;10187738;29;20098;-77
2022/09/05 18:51:59;;;;;;;4.05;3.50;;;;;;;25.29;40.39;100581.91;10177683;29;20059;-77
2022/09/05 18:57:10;;;;;;;10.50;3.70;;;;;;;25.18;40.50;100579.84;10204491;28;20050;-75
2022/09/05 19:02:40;;;;;;;4.55;3.72;;;;;;;24.98;40.92;100574.34;10193905;29;20178;-79
2022/09/05 19:08:03;;;;;;;8.55;3.97;;;;;;;24.79;40.91;100578.81;10220369;29;20058;-80
2022/09/05 19:13:13;;;;;;;5.07;3.78;;;;;;;24.60;41.26;100575.06;10203961;29;20078;-80
2022/09/05 19:18:20;;;;;;;9.15;3.90;;;;;;;24.37;41.79;100575.44;10184517;29;20103;-78
2022/09/05 19:23:32;;;;;;;3.60;3.35;;;;;;;24.30;41.88;100571.88;10214264;29;20055;-79
2022/09/05 19:28:38;;;;;;;8.80;3.90;;;;;;;24.19;42.18;100575.22;10212575;29;20047;-79
2022/09/05 19:34:06;;;;;;;4.25;3.85;;;;;;;23.97;42.34;100577.28;10206673;28;20063;-78
2022/09/05 19:39:33;;;;;;;5.85;4.13;;;;;;;23.97;42.23;100580.91;10209324;29;20051;-79
2022/09/05 19:44:59;;;;;;;8.60;4.00;;;;;;;23.91;42.38;100592.69;10189582;28;20772;-80
2022/09/05 19:50:28;;;;;;;8.02;4.53;;;;;;;23.72;43.13;100580.56;10238874;28;20051;-79
2022/09/05 19:55:36;;;;;;;6.63;4.22;;;;;;;23.77;43.15;100575.34;10234544;28;20054;-81
2022/09/05 20:00:40;;;;;;;7.75;4.07;;;;;;;23.68;43.40;100571.09;10219978;28;20047;-80
2022/09/05 20:05:50;;;;;;;8.88;4.80;;;;;;;23.82;42.96;100574.75;10206364;28;20067;-81
2022/09/05 20:11:01;;;;;;;4.47;4.13;;;;;;;23.77;43.28;100569.88;10208765;29;20134;-80
2022/09/05 20:16:04;;;;;;;7.68;4.05;;;;;;;23.73;43.02;100565.00;10205164;28;20058;-80
2022/09/05 20:21:11;;;;;;;5.38;4.78;;;;;;;23.74;43.16;100563.94;10211064;28;20055;-82
2022/09/05 20:26:18;;;;;;;4.90;4.50;;;;;;;23.57;43.46;100566.22;10232421;28;20055;-80
2022/09/05 20:31:26;;;;;;;9.25;4.95;;;;;;;23.65;43.73;100568.75;10250152;28;20047;-81
2022/09/05 20:36:34;;;;;;;6.78;5.07;;;;;;;23.62;43.64;100564.53;10199338;28;20103;-81
2022/09/05 20:41:57;;;;;;;5.32;4.85;;;;;;;23.51;44.27;100576.09;10200252;28;20055;-81
2022/09/05 20:47:26;;;;;;;6.07;5.07;;;;;;;23.47;44.08;100582.19;10216851;28;20125;-81
2022/09/05 20:52:54;;;;;;;6.55;4.53;;;;;;;23.08;44.98;100592.72;10211681;28;20134;-79
2022/09/05 20:58:24;;;;;;;7.57;4.20;;;;;;;23.18;45.18;100586.91;10192135;28;20117;-80
2022/09/05 21:03:39;;;;;;;6.97;4.40;;;;;;;23.04;45.13;100583.22;10209369;28;20051;-80
2022/09/05 21:08:49;;;;;;;6.07;4.72;;;;;;;23.07;45.23;100581.97;10195718;28;20047;-81
2022/09/05 21:14:02;;;;;;;6.72;4.60;;;;;;;22.69;46.32;100574.13;10199492;28;20044;-80
2022/09/05 21:19:04;;;;;;;;;;;;;;;22.80;46.08;100568.09;10183853;29;20659;-80
2022/09/05 21:24:10;;;;;;;;;;;;;;;22.78;45.93;100584.72;10198134;28;20010;-78
2022/09/05 21:29:24;;;;;;;5.85;4.90;;;;;;;22.61;46.62;100577.03;10205535;28;19958;-80
2022/09/05 21:34:39;;;;;;;6.22;4.40;;;;;;;22.59;46.57;100579.94;10210571;28;20413;-79
2022/09/05 21:39:50;;;;;;;10.07;5.20;;;;;;;22.58;46.39;100571.94;10209889;28;20543;-77
2022/09/05 21:45:02;;;;;;;7.82;4.63;;;;;;;22.57;46.86;100576.56;10202970;28;20417;-77
2022/09/05 21:50:26;;;;;;;6.45;4.35;;;;;;;22.48;46.82;100575.84;10193709;29;20134;-78
2022/09/05 21:55:35;;;;;;;4.90;4.40;;;;;;;22.28;47.24;100562.00;10209476;28;20957;-77
2022/09/05 22:00:58;;;;;;;7.32;5.10;;;;;;;22.40;47.10;100570.50;10215601;29;20095;-78
2022/09/05 22:06:01;;;;;;;5.13;4.22;;;;;;;22.27;47.59;100570.38;10202100;28;20115;-79
2022/09/05 22:11:13;;;;;;;9.05;5.00;;;;;;;22.12;48.11;100575.94;10196638;29;20055;-79
2022/09/05 22:16:16;;;;;;;8.15;5.13;;;;;;;22.09;48.17;100563.50;10194121;29;20047;-79
2022/09/05 22:21:22;;;;;;;5.13;4.63;;;;;;;21.82;48.42;100562.38;10201870;29;20226;-78
2022/09/05 22:26:44;;;;;;;5.35;4.70;;;;;;;21.81;48.45;100559.84;10193399;28;20059;-78
2022/09/05 22:32:07;;;;;;;5.40;4.90;;;;;;;21.84;48.40;100541.16;10189835;29;20055;-79
2022/09/05 22:37:12;;;;;;;6.30;5.00;;;;;;;21.77;48.86;100529.31;10196862;28;20059;-79
2022/09/05 22:42:17;;;;;;;6.30;5.05;;;;;;;21.84;48.83;100530.22;10190244;29;20095;-79
2022/09/05 22:47:20;;;;;;;9.25;5.45;;;;;;;21.73;48.91;100529.88;10200546;28;20047;-79
2022/09/05 22:52:23;;;;;;;5.82;4.95;;;;;;;21.71;48.74;100531.94;10222431;29;20058;-78
2022/09/05 22:57:27;;;;;;;7.20;5.15;;;;;;;21.64;49.00;100527.25;10192435;29;20055;-79
2022/09/05 23:02:30;;;;;;;7.68;5.22;;;;;;;21.73;49.02;100522.50;10195672;29;20059;-79
2022/09/05 23:07:33;;;;;;;6.28;5.15;;;;;;;21.63;49.13;100513.78;10199438;29;20474;-79
2022/09/05 23:12:37;;;;;;;5.93;5.30;;;;;;;21.58;49.38;100511.63;10211092;29;20051;-79
2022/09/05 23:17:40;;;;;;;6.25;5.25;;;;;;;21.47;49.33;100509.41;10187313;29;20461;-78
2022/09/05 23:22:43;;;;;;;11.50;5.47;;;;;;;21.26;49.95;100507.50;10187298;29;20055;-78
2022/09/05 23:27:48;;;;;;;6.40;5.43;;;;;;;21.48;49.44;100521.19;10241637;28;20043;-77
2022/09/05 23:32:51;;;;;;;6.53;5.57;;;;;;;21.44;49.51;100518.81;10251483;29;20106;-78
2022/09/05 23:37:54;;;;;;;5.88;5.25;;;;;;;21.41;50.03;100515.63;10203467;29;20048;-78
2022/09/05 23:42:59;;;;;;;6.35;5.72;;;;;;;21.44;49.85;100512.50;10207487;29;20058;-78
2022/09/05 23:48:03;;;;;;;6.00;5.40;;;;;;;21.45;49.87;100506.03;10205620;29;20043;-78
2022/09/05 23:53:06;;;;;;;6.30;5.75;;;;;;;21.44;49.68;100512.50;10217052;29;20051;-77
2022/09/05 23:58:11;;;;;;;8.10;6.05;;;;;;;21.49;49.96;100507.31;10238688;29;20047;-79
